Time;durP1;ratioP1;P1;durP2;ratioP2;P2;SDS_P1;SDS_P2;PMS_P1;PMS_P2;Temp;Humidity;BMP_temperature;BMP_pressure;BME280_temperature;BME280_humidity;BME280_pressure;Samples;Min_cycle;Max_cycle;Signal;HPM_P1;HPM_P2
2023/05/04 00:01:17;;;;;;;;;;;;;;;24.88;37.44;99409.08;1864723;77;20196;-53
2023/05/04 00:04:04;;;;;;;;;;;;;;;24.86;37.40;99414.80;1857258;77;20149;-53
2023/05/04 00:06:51;;;;;;;;;;;;;;;24.84;37.46;99412.84;1855738;77;20160;-53
2023/05/04 00:09:39;;;;;;;;;;;;;;;24.83;37.48;99411.20;1867274;77;20159;-51
2023/05/04 00:12:27;;;;;;;;;;;;;;;24.84;37.48;99414.22;1856373;77;20125;-55
2023/05/04 00:15:14;;;;;;;;;;;;;;;24.85;37.43;99409.03;1864835;77;20145;-52
2023/05/04 00:18:01;;;;;;;;;;;;;;;24.88;37.42;99409.88;1868779;76;20125;-55
2023/05/04 00:20:49;;;;;;;;;;;;;;;24.88;37.43;99409.08;1873338;76;20185;-53
2023/05/04 00:23:37;;;;;;;;;;;;;;;24.89;37.43;99410.19;1873894;76;20166;-53
2023/05/04 00:26:24;;;;;;;;;;;;;;;24.88;37.43;99413.19;1869652;76;20200;-51
2023/05/04 00:29:12;;;;;;;;;;;;;;;24.88;37.44;99406.33;1846596;77;20153;-49
2023/05/04 00:32:00;;;;;;;;;;;;;;;24.87;37.45;99403.27;1844618;77;20154;-53
2023/05/04 00:34:48;;;;;;;;;;;;;;;24.86;37.45;99402.44;1813755;78;20186;-53
2023/05/04 00:37:35;;;;;;;;;;;;;;;24.87;37.46;99396.41;1840025;78;20152;-53
2023/05/04 00:40:23;;;;;;;;;;;;;;;24.89;37.44;99396.98;1821811;78;20203;-53
2023/05/04 00:43:11;;;;;;;;;;;;;;;24.87;37.46;99401.91;1852171;77;20125;-53
2023/05/04 00:45:58;;;;;;;;;;;;;;;24.88;37.44;99395.33;1833057;77;20186;-52
2023/05/04 00:48:47;;;;;;;;;;;;;;;24.86;37.44;99392.81;1842001;77;20172;-56
2023/05/04 00:51:34;;;;;;;;;;;;;;;24.87;37.47;99395.03;1862740;76;20126;-52
2023/05/04 00:54:23;;;;;;;;;;;;;;;24.85;37.46;99391.17;1837761;77;20158;-52
2023/05/04 00:57:10;;;;;;;;;;;;;;;24.86;37.48;99394.19;1841082;77;20123;-53
2023/05/04 00:59:58;;;;;;;;;;;;;;;24.87;37.49;99397.78;1834645;76;20169;-54
2023/05/04 01:02:45;;;;;;;;;;;;;;;24.87;37.45;99391.75;1875091;76;20192;-51
2023/05/04 01:05:35;;;;;;;;;;;;;;;24.87;37.48;99399.16;1851725;77;20163;-54
2023/05/04 01:08:26;;;;;;;;;;;;;;;24.85;37.48;99396.67;1845383;77;20154;-54
2023/05/04 01:11:18;;;;;;;;;;;;;;;24.87;37.44;99397.25;1837253;77;20161;-52
2023/05/04 01:14:06;;;;;;;;;;;;;;;24.87;37.45;99394.50;1823204;78;20135;-54
2023/05/04 01:16:54;;;;;;;;;;;;;;;24.89;37.39;99394.23;1865342;76;20214;-54
2023/05/04 01:19:42;;;;;;;;;;;;;;;24.87;37.47;99393.66;1831033;78;20126;-51
2023/05/04 01:22:29;;;;;;;;;;;;;;;24.86;37.48;99392.81;1844098;77;20170;-53
2023/05/04 01:25:17;;;;;;;;;;;;;;;24.89;37.45;99394.23;1866278;76;20151;-54
2023/05/04 01:28:10;;;;;;;;;;;;;;;24.88;37.45;99396.70;1880514;76;20121;-53
2023/05/04 01:30:59;;;;;;;;;;;;;;;24.88;37.46;99396.14;1842718;78;20148;-53
2023/05/04 01:33:47;;;;;;;;;;;;;;;24.89;37.47;99402.48;1836697;78;20211;-52
2023/05/04 01:36:36;;;;;;;;;;;;;;;24.87;37.44;99403.27;1849225;77;20127;-56
2023/05/04 01:39:23;;;;;;;;;;;;;;;24.88;37.44;99411.82;1856490;76;20157;-53
2023/05/04 01:42:10;;;;;;;;;;;;;;;24.91;37.43;99404.42;1863399;76;20174;-52
2023/05/04 01:44:58;;;;;;;;;;;;;;;24.88;37.43;99405.76;1879501;76;20121;-51
2023/05/04 01:47:46;;;;;;;;;;;;;;;24.88;37.43;99406.33;1880676;76;20121;-52
2023/05/04 01:50:33;;;;;;;;;;;;;;;24.89;37.40;99402.48;1939905;73;20142;-54
2023/05/04 01:53:22;;;;;;;;;;;;;;;24.89;37.45;99403.31;1924853;73;20172;-53
2023/05/04 01:56:09;;;;;;;;;;;;;;;24.87;37.47;99400.53;1927947;74;20151;-52
2023/05/04 01:58:57;;;;;;;;;;;;;;;24.87;37.48;99400.53;1883160;76;20186;-49
2023/05/04 02:01:44;;;;;;;;;;;;;;;24.87;37.44;99404.11;1851859;76;20152;-52
2023/05/04 02:04:32;;;;;;;;;;;;;;;24.85;37.54;99396.67;1857846;77;20148;-52
2023/05/04 02:07:20;;;;;;;;;;;;;;;24.87;37.46;99401.36;1876975;76;20159;-50
2023/05/04 02:10:08;;;;;;;;;;;;;;;24.87;37.37;99401.36;1910873;74;20232;-51
2023/05/04 02:12:56;;;;;;;;;;;;;;;24.88;37.40;99407.70;1932573;74;20121;-50
2023/05/04 02:15:43;;;;;;;;;;;;;;;24.89;37.42;99412.09;1931701;74;20189;-52
2023/05/04 02:18:30;;;;;;;;;;;;;;;24.90;37.38;99409.65;1913871;74;20163;-50
2023/05/04 02:21:18;;;;;;;;;;;;;;;24.88;37.37;99414.00;1925846;73;20202;-52
2023/05/04 02:24:06;;;;;;;;;;;;;;;24.89;37.32;99412.93;1910441;74;20231;-53
2023/05/04 02:26:53;;;;;;;;;;;;;;;24.90;37.31;99422.02;1907493;74;20204;-50
2023/05/04 02:29:41;;;;;;;;;;;;;;;24.90;37.32;99421.45;1929911;74;20109;-48
2023/05/04 02:32:28;;;;;;;;;;;;;;;24.89;37.29;99417.59;1920762;74;20158;-51
2023/05/04 02:35:16;;;;;;;;;;;;;;;24.90;37.27;99416.52;1920002;74;20144;-52
2023/05/04 02:38:03;;;;;;;;;;;;;;;24.88;37.24;99411.25;1913218;74;20228;-52
2023/05/04 02:40:51;;;;;;;;;;;;;;;24.88;37.28;99417.31;1916798;74;20126;-51
2023/05/04 02:43:39;;;;;;;;;;;;;;;24.88;37.25;99414.00;1904326;74;20174;-51
2023/05/04 02:46:26;;;;;;;;;;;;;;;24.89;37.24;99410.72;1911698;74;20581;-53
2023/05/04 02:49:14;;;;;;;;;;;;;;;24.87;37.26;99409.61;1894415;75;20173;-50
2023/05/04 02:52:01;;;;;;;;;;;;;;;24.88;37.23;99409.88;1902614;75;20180;-51
2023/05/04 02:54:48;;;;;;;;;;;;;;;24.90;37.19;99416.52;1919175;74;20118;-53
2023/05/04 02:57:36;;;;;;;;;;;;;;;24.85;37.27;99406.82;1917586;74;20286;-49
2023/05/04 03:00:24;;;;;;;;;;;;;;;24.87;37.25;99410.14;1919406;75;20145;-51
2023/05/04 03:03:12;;;;;;;;;;;;;;;24.86;37.24;99412.05;1902033;75;20200;-51
2023/05/04 03:05:59;;;;;;;;;;;;;;;24.84;37.22;99403.23;1905856;74;20167;-49
2023/05/04 03:08:47;;;;;;;;;;;;;;;24.85;37.25;99401.33;1922450;74;20205;-52
2023/05/04 03:11:34;;;;;;;;;;;;;;;24.84;37.25;99402.39;1907169;75;20122;-51
2023/05/04 03:14:22;;;;;;;;;;;;;;;24.83;37.29;99398.00;1901121;75;20129;-52
2023/05/04 03:17:10;;;;;;;;;;;;;;;24.82;37.27;99406.78;1915299;75;20172;-49
2023/05/04 03:19:58;;;;;;;;;;;;;;;24.82;37.29;99398.53;1918809;75;20156;-49
2023/05/04 03:22:45;;;;;;;;;;;;;;;24.82;37.26;99397.70;1916388;75;20181;-47
2023/05/04 03:25:33;;;;;;;;;;;;;;;24.81;37.30;99399.60;1923624;74;20121;-51
2023/05/04 03:28:21;;;;;;;;;;;;;;;24.81;37.30;99398.80;1909472;74;20170;-51
2023/05/04 03:31:09;;;;;;;;;;;;;;;24.81;37.27;99396.05;1896956;75;20153;-53
2023/05/04 03:33:56;;;;;;;;;;;;;;;24.82;37.30;99397.70;1900244;74;20114;-50
2023/05/04 03:36:44;;;;;;;;;;;;;;;24.81;37.25;99393.30;1918129;74;20255;-51
2023/05/04 03:39:32;;;;;;;;;;;;;;;24.77;37.27;99397.08;1911945;74;20119;-52
2023/05/04 03:42:19;;;;;;;;;;;;;;;24.80;37.28;99397.95;1907377;74;20148;-51
2023/05/04 03:45:07;;;;;;;;;;;;;;;24.79;37.28;99401.78;1891245;76;20160;-55
2023/05/04 03:47:55;;;;;;;;;;;;;;;24.80;37.28;99402.61;1893622;76;20144;-53
2023/05/04 03:50:42;;;;;;;;;;;;;;;24.79;37.28;99397.66;1894039;76;20159;-51
2023/05/04 03:53:30;;;;;;;;;;;;;;;24.78;37.30;99402.88;1865213;76;20154;-50
2023/05/04 03:56:18;;;;;;;;;;;;;;;24.77;37.32;99398.98;1847049;78;20232;-51
2023/05/04 03:59:06;;;;;;;;;;;;;;;24.79;37.30;99403.69;1808837;78;20126;-47
2023/05/04 04:01:53;;;;;;;;;;;;;;;24.77;37.28;99400.36;1820941;78;20149;-52
2023/05/04 04:04:41;;;;;;;;;;;;;;;24.77;37.30;99400.36;1816107;78;20205;-50
2023/05/04 04:07:29;;;;;;;;;;;;;;;24.77;37.33;99396.23;1829050;77;20122;-51
2023/05/04 04:10:17;;;;;;;;;;;;;;;24.77;37.31;99398.98;1825203;78;20301;-51
2023/05/04 04:13:05;;;;;;;;;;;;;;;24.77;37.31;99396.23;1832213;78;20126;-52
2023/05/04 04:15:52;;;;;;;;;;;;;;;24.78;37.31;99404.78;1827393;77;20238;-49
2023/05/04 04:18:40;;;;;;;;;;;;;;;24.76;37.32;99402.80;1831524;78;20197;-52
2023/05/04 04:21:28;;;;;;;;;;;;;;;24.76;37.31;99405.55;1818365;79;20129;-50
2023/05/04 04:24:15;;;;;;;;;;;;;;;24.76;37.27;99406.92;1815345;78;20182;-53
2023/05/04 04:27:03;;;;;;;;;;;;;;;24.74;37.34;99403.03;1821954;78;20143;-51
2023/05/04 04:29:50;;;;;;;;;;;;;;;24.75;37.38;99410.20;1825959;78;20138;-51
2023/05/04 04:32:38;;;;;;;;;;;;;;;24.74;37.33;99404.41;1831973;78;20177;-53
2023/05/04 04:35:26;;;;;;;;;;;;;;;24.76;37.29;99409.67;1812815;78;20170;-51
2023/05/04 04:38:14;;;;;;;;;;;;;;;24.76;37.36;99411.05;1829837;78;20200;-51
2023/05/04 04:41:02;;;;;;;;;;;;;;;24.74;37.38;99405.78;1830331;78;20185;-48
2023/05/04 04:43:49;;;;;;;;;;;;;;;24.74;37.41;99404.41;1829469;78;20125;-55
2023/05/04 04:46:37;;;;;;;;;;;;;;;24.71;37.42;99402.98;1842902;77;20123;-52
2023/05/04 04:49:25;;;;;;;;;;;;;;;24.71;37.46;99397.50;1849031;78;20126;-52
2023/05/04 04:52:12;;;;;;;;;;;;;;;24.71;37.51;99402.19;1847501;78;20170;-50
2023/05/04 04:55:00;;;;;;;;;;;;;;;24.71;37.51;99408.48;1821442;78;20173;-50
2023/05/04 04:57:47;;;;;;;;;;;;;;;24.68;37.55;99406.26;1858175;76;20149;-49
2023/05/04 05:00:36;;;;;;;;;;;;;;;24.71;37.54;99418.09;1862654;76;20128;-51
2023/05/04 05:03:24;;;;;;;;;;;;;;;24.70;37.60;99413.70;1864579;76;20142;-52
2023/05/04 05:06:12;;;;;;;;;;;;;;;24.67;37.57;99411.45;1850588;77;20188;-50
2023/05/04 05:09:00;;;;;;;;;;;;;;;24.69;37.60;99416.15;1875832;76;20246;-49
2023/05/04 05:11:47;;;;;;;;;;;;;;;24.70;37.59;99408.75;1879622;76;20129;-51
2023/05/04 05:14:35;;;;;;;;;;;;;;;24.68;37.66;99413.66;1856310;76;20158;-49
2023/05/04 05:17:22;;;;;;;;;;;;;;;24.69;37.67;99413.40;1863480;76;20158;-49
2023/05/04 05:20:10;;;;;;;;;;;;;;;24.69;37.74;99409.28;1860382;76;20127;-51
2023/05/04 05:22:58;;;;;;;;;;;;;;;24.68;37.71;99414.50;1848582;77;20255;-54
2023/05/04 05:25:45;;;;;;;;;;;;;;;24.66;37.27;99416.67;1828774;78;20126;-52
2023/05/04 05:28:33;;;;;;;;;;;;;;;24.67;36.74;99424.34;1865391;76;20153;-49
2023/05/04 05:31:20;;;;;;;;;;;;;;;24.58;36.58;99418.98;1876242;76;20153;-54
2023/05/04 05:34:08;;;;;;;;;;;;;;;24.63;36.22;99418.53;1825592;78;20151;-54
2023/05/04 05:36:55;;;;;;;;;;;;;;;24.60;36.40;99417.65;1849968;76;20128;-54
2023/05/04 05:39:43;;;;;;;;;;;;;;;24.60;36.80;99423.67;1830520;78;20208;-51
2023/05/04 05:42:31;;;;;;;;;;;;;;;24.62;36.92;99433.90;1836767;77;20198;-52
2023/05/04 05:45:18;;;;;;;;;;;;;;;24.62;37.01;99429.22;1834200;77;20130;-54
2023/05/04 05:48:06;;;;;;;;;;;;;;;24.64;37.02;99430.36;1818466;78;20151;-54
2023/05/04 05:50:54;;;;;;;;;;;;;;;24.65;37.04;99436.13;1806182;78;20233;-53
2023/05/04 05:53:41;;;;;;;;;;;;;;;24.64;37.11;99428.98;1831682;78;20123;-52
2023/05/04 05:56:29;;;;;;;;;;;;;;;24.64;37.16;99433.91;1821624;78;20163;-54
2023/05/04 05:59:17;;;;;;;;;;;;;;;24.66;37.16;99432.31;1830817;77;20183;-53
2023/05/04 06:02:04;;;;;;;;;;;;;;;24.65;37.20;99432.00;1823281;78;20123;-52
2023/05/04 06:04:52;;;;;;;;;;;;;;;24.65;37.20;99438.88;1818788;78;20194;-51
2023/05/04 06:07:40;;;;;;;;;;;;;;;24.60;37.26;99439.63;1828603;78;20135;-51
2023/05/04 06:10:28;;;;;;;;;;;;;;;24.59;37.14;99439.34;1839482;77;20243;-57
2023/05/04 06:13:15;;;;;;;;;;;;;;;24.62;37.16;99442.14;1836801;78;20122;-45
2023/05/04 06:16:02;;;;;;;;;;;;;;;24.62;37.27;99447.06;1828777;78;20211;-45
2023/05/04 06:18:50;;;;;;;;;;;;;;;24.66;37.29;99446.05;1840974;78;20124;-45
2023/05/04 06:21:38;;;;;;;;;;;;;;;24.63;37.32;99439.13;1837887;78;20127;-44
2023/05/04 06:24:25;;;;;;;;;;;;;;;24.69;37.32;99435.94;1838643;78;20210;-44
2023/05/04 06:27:16;;;;;;;;;;;;;;;24.70;37.31;99433.47;1831730;78;20153;-45
2023/05/04 06:30:04;;;;;;;;;;;;;;;24.71;37.40;99433.77;1835473;78;20122;-43
2023/05/04 06:32:52;;;;;;;;;;;;;;;24.68;37.44;99432.89;1838274;78;20178;-47
2023/05/04 06:35:39;;;;;;;;;;;;;;;24.68;37.59;99436.48;1840083;78;20167;-44
2023/05/04 06:38:27;;;;;;;;;;;;;;;24.67;37.64;99429.30;1843012;78;20155;-44
2023/05/04 06:41:15;;;;;;;;;;;;;;;24.69;37.63;99429.08;1836205;78;20172;-44
2023/05/04 06:44:03;;;;;;;;;;;;;;;24.72;37.75;99441.75;1827736;78;20123;-46
2023/05/04 06:46:50;;;;;;;;;;;;;;;24.70;37.80;99435.68;1825786;78;20206;-44
2023/05/04 06:49:37;;;;;;;;;;;;;;;24.73;37.81;99438.47;1823089;78;20192;-43
2023/05/04 06:52:28;;;;;;;;;;;;;;;24.72;37.80;99432.14;1827977;78;20156;-45
2023/05/04 06:55:14;;;;;;;;;;;;;;;24.72;37.85;99411.53;1828306;78;20158;-46
2023/05/04 06:58:02;;;;;;;;;;;;;;;24.74;37.82;99412.11;1813309;78;20126;-45
2023/05/04 07:00:49;;;;;;;;;;;;;;;24.76;37.83;99411.05;1828815;78;20130;-46
2023/05/04 07:03:37;;;;;;;;;;;;;;;24.75;37.83;99412.95;1808414;78;20224;-45
2023/05/04 07:06:28;;;;;;;;;;;;;;;24.75;37.76;99411.58;1822141;78;20123;-43
2023/05/04 07:09:16;;;;;;;;;;;;;;;24.73;37.80;99405.50;1825839;78;20155;-47
2023/05/04 07:12:04;;;;;;;;;;;;;;;24.76;37.75;99412.42;1828798;78;20178;-45
2023/05/04 07:14:52;;;;;;;;;;;;;;;24.76;37.79;99416.54;1824702;78;20126;-45
2023/05/04 07:17:39;;;;;;;;;;;;;;;24.74;37.79;99408.52;1822675;78;20147;-46
2023/05/04 07:20:28;;;;;;;;;;;;;;;24.74;37.84;99401.13;1824069;78;20182;-44
2023/05/04 07:23:15;;;;;;;;;;;;;;;24.77;37.87;99398.45;1820135;78;20199;-44
2023/05/04 07:26:03;;;;;;;;;;;;;;;24.79;37.87;99414.14;1827733;78;20132;-43
2023/05/04 07:28:50;;;;;;;;;;;;;;;24.77;37.88;99411.34;1812551;78;20126;-44
2023/05/04 07:31:38;;;;;;;;;;;;;;;24.77;37.94;99410.81;1828855;78;20123;-45
2023/05/04 07:34:25;;;;;;;;;;;;;;;24.79;37.97;99407.27;1826098;78;20131;-47
2023/05/04 07:37:14;;;;;;;;;;;;;;;24.81;37.95;99413.91;1815981;78;20165;-46
2023/05/04 07:40:04;;;;;;;;;;;;;;;24.80;37.99;99413.06;1818878;78;20215;-45
2023/05/04 07:42:51;;;;;;;;;;;;;;;24.79;37.99;99410.02;1823297;78;20129;-44
2023/05/04 07:45:38;;;;;;;;;;;;;;;24.81;38.01;99408.41;1822276;78;20158;-46
2023/05/04 07:48:25;;;;;;;;;;;;;;;24.81;37.99;99408.41;1836469;77;20161;-45
2023/05/04 07:51:14;;;;;;;;;;;;;;;24.79;38.06;99405.89;1830530;78;20162;-45
2023/05/04 07:54:03;;;;;;;;;;;;;;;24.82;38.04;99406.78;1826947;77;20246;-43
2023/05/04 07:56:50;;;;;;;;;;;;;;;24.80;38.01;99407.58;1853454;77;20135;-47
2023/05/04 07:59:38;;;;;;;;;;;;;;;24.81;38.07;99405.09;1846110;77;20126;-45
2023/05/04 08:02:25;;;;;;;;;;;;;;;24.82;38.04;99408.69;1846724;78;20170;-45
2023/05/04 08:05:13;;;;;;;;;;;;;;;24.83;38.04;99408.45;1826583;78;20149;-43
2023/05/04 08:08:00;;;;;;;;;;;;;;;24.82;38.04;99402.66;1835045;78;20186;-43
2023/05/04 08:10:48;;;;;;;;;;;;;;;24.83;38.01;99403.49;1826119;78;20168;-44
2023/05/04 08:13:35;;;;;;;;;;;;;;;24.85;38.06;99408.20;1830005;78;20198;-45
2023/05/04 08:16:22;;;;;;;;;;;;;;;24.84;38.02;99401.02;1827965;77;20178;-44
2023/05/04 08:19:10;;;;;;;;;;;;;;;24.82;38.04;99401.81;1835217;78;20130;-45
2023/05/04 08:21:58;;;;;;;;;;;;;;;24.85;38.04;99399.41;1833949;78;20127;-45
2023/05/04 08:24:49;;;;;;;;;;;;;;;24.87;38.03;99400.53;1825620;78;20259;-44
2023/05/04 08:27:36;;;;;;;;;;;;;;;24.85;38.03;99399.41;1837844;78;20167;-43
2023/05/04 08:30:24;;;;;;;;;;;;;;;24.85;38.06;99399.95;1822533;78;20123;-44
2023/05/04 08:33:12;;;;;;;;;;;;;;;24.85;38.07;99390.34;1832176;78;20194;-44
2023/05/04 08:35:59;;;;;;;;;;;;;;;24.85;38.06;99392.55;1836449;78;20166;-44
2023/05/04 08:38:47;;;;;;;;;;;;;;;24.86;38.05;99387.33;1840359;78;20148;-43
2023/05/04 08:41:36;;;;;;;;;;;;;;;24.86;38.06;99386.48;1832810;78;20190;-43
2023/05/04 08:44:24;;;;;;;;;;;;;;;24.85;38.05;99382.09;1828669;78;20198;-45
2023/05/04 08:47:11;;;;;;;;;;;;;;;24.85;38.06;99389.80;1839525;78;20238;-45
2023/05/04 08:49:58;;;;;;;;;;;;;;;24.86;38.05;99378.23;1821349;78;20233;-44
2023/05/04 08:52:46;;;;;;;;;;;;;;;24.86;38.05;99385.95;1915679;74;20166;-44
2023/05/04 08:55:35;;;;;;;;;;;;;;;24.87;38.05;99382.67;1905836;75;20162;-48
2023/05/04 08:58:24;;;;;;;;;;;;;;;24.88;37.98;99379.66;1892038;75;20158;-43
2023/05/04 09:01:12;;;;;;;;;;;;;;;24.89;38.04;99388.73;1902635;74;20208;-45
2023/05/04 09:04:01;;;;;;;;;;;;;;;24.89;38.00;99388.73;1904835;75;20125;-45
2023/05/04 09:06:49;;;;;;;;;;;;;;;24.87;38.03;99393.13;1901796;75;20149;-45
2023/05/04 09:09:36;;;;;;;;;;;;;;;24.88;38.05;99383.77;1907641;75;20118;-45
2023/05/04 09:12:25;;;;;;;;;;;;;;;24.87;38.05;99384.04;1906184;74;20118;-49
2023/05/04 09:15:20;;;;;;;;;;;;;;;24.88;38.02;99389.84;1919432;74;20125;-44
2023/05/04 09:18:11;;;;;;;;;;;;;;;24.87;38.11;99392.28;1903754;74;20288;-44
2023/05/04 09:20:58;;;;;;;;;;;;;;;24.87;38.10;99387.62;1900427;75;20211;-47
2023/05/04 09:23:50;;;;;;;;;;;;;;;24.85;38.21;99392.55;1913105;74;20213;-47
2023/05/04 09:26:38;;;;;;;;;;;;;;;24.85;38.28;99389.80;1910433;75;20123;-44
2023/05/04 09:29:26;;;;;;;;;;;;;;;24.84;38.31;99387.28;1910283;75;20129;-45
2023/05/04 09:32:14;;;;;;;;;;;;;;;24.85;38.34;99388.42;1903869;75;20166;-45
2023/05/04 09:35:01;;;;;;;;;;;;;;;24.84;38.37;99380.41;1910952;75;20122;-44
2023/05/04 09:37:49;;;;;;;;;;;;;;;24.87;38.31;99384.04;1930855;74;20164;-46
2023/05/04 09:40:42;;;;;;;;;;;;;;;24.88;38.39;99378.28;1909389;75;20232;-44
2023/05/04 09:43:32;;;;;;;;;;;;;;;24.84;38.49;99373.55;1895397;75;20130;-44
2023/05/04 09:46:20;;;;;;;;;;;;;;;24.85;38.48;99372.47;1912802;75;20140;-45
2023/05/04 09:49:08;;;;;;;;;;;;;;;24.85;38.41;99367.81;1883986;76;20151;-46
2023/05/04 09:51:56;;;;;;;;;;;;;;;24.88;38.33;99363.73;1877655;76;20218;-45
2023/05/04 09:54:45;;;;;;;;;;;;;;;24.89;38.37;99364.01;1892787;76;20182;-44
2023/05/04 09:57:34;;;;;;;;;;;;;;;24.87;38.35;99365.64;1893742;76;20246;-48
2023/05/04 10:00:21;;;;;;;;;;;;;;;24.90;38.37;99363.74;1879651;76;20153;-44
2023/05/04 10:03:09;;;;;;;;;;;;;;;24.90;38.27;99350.57;1881440;76;20173;-43
2023/05/04 10:05:58;;;;;;;;;;;;;;;24.90;38.33;99350.00;1892340;76;20292;-43
2023/05/04 10:08:48;;;;;;;;;;;;;;;24.92;38.32;99352.52;1886470;76;20214;-46
2023/05/04 10:11:36;;;;;;;;;;;;;;;24.91;38.25;99350.31;1874987;76;20179;-45
2023/05/04 10:14:24;;;;;;;;;;;;;;;24.92;38.25;99348.40;1888594;76;20155;-48
2023/05/04 10:17:25;;;;;;;;;;;;;;;24.92;38.22;99352.52;1887491;76;20218;-45
2023/05/04 10:20:31;;;;;;;;;;;;;;;24.92;38.18;99354.73;1888473;76;20150;-47
2023/05/04 10:23:37;;;;;;;;;;;;;;;24.92;38.17;99345.66;1893658;76;20175;-46
2023/05/04 10:26:43;;;;;;;;;;;;;;;24.90;38.19;99335.46;1887290;76;20148;-45
2023/05/04 10:29:32;;;;;;;;;;;;;;;24.90;38.17;99335.46;1893465;76;20163;-43
2023/05/04 10:32:20;;;;;;;;;;;;;;;24.88;38.17;99334.89;1887066;76;20133;-47
2023/05/04 10:35:09;;;;;;;;;;;;;;;24.87;38.16;99328.55;1887090;76;20148;-45
2023/05/04 10:37:57;;;;;;;;;;;;;;;24.90;38.15;99325.27;1876427;76;20261;-46
2023/05/04 10:40:49;;;;;;;;;;;;;;;24.92;38.12;99309.93;1881775;76;20195;-46
2023/05/04 10:43:37;;;;;;;;;;;;;;;24.90;38.14;99306.61;1893571;76;20219;-44
2023/05/04 10:46:25;;;;;;;;;;;;;;;24.93;38.14;99303.33;1875106;76;20230;-46
2023/05/04 10:49:16;;;;;;;;;;;;;;;24.95;38.10;99294.31;1827384;78;20155;-49
2023/05/04 10:52:06;;;;;;;;;;;;;;;24.95;38.07;99301.99;1815148;78;20166;-48
2023/05/04 10:55:01;;;;;;;;;;;;;;;24.94;38.07;99288.52;1834022;78;20134;-44
2023/05/04 10:57:56;;;;;;;;;;;;;;;24.95;38.04;99283.33;1836882;78;20160;-48
2023/05/04 11:00:45;;;;;;;;;;;;;;;24.95;38.04;99278.64;1836402;78;20183;-47
2023/05/04 11:03:40;;;;;;;;;;;;;;;24.95;38.09;99276.45;1828101;78;20127;-49
2023/05/04 11:06:27;;;;;;;;;;;;;;;24.95;38.05;99274.52;1824473;78;20254;-47
2023/05/04 11:09:14;;;;;;;;;;;;;;;24.95;38.09;99272.33;1838538;78;20265;-47
2023/05/04 11:12:02;;;;;;;;;;;;;;;24.95;38.00;99272.33;1832623;78;20214;-45
2023/05/04 11:14:49;;;;;;;;;;;;;;;24.97;37.99;99267.41;1826886;78;20201;-45
2023/05/04 11:17:46;;;;;;;;;;;;;;;24.99;37.94;99262.48;1831757;78;20205;-46
2023/05/04 11:20:34;;;;;;;;;;;;;;;24.99;37.93;99253.70;1836525;78;20131;-46
2023/05/04 11:23:22;;;;;;;;;;;;;;;25.00;37.92;99251.77;1833860;78;20273;-47
2023/05/04 11:26:11;;;;;;;;;;;;;;;24.99;37.95;99250.12;1831984;78;20144;-45
2023/05/04 11:28:58;;;;;;;;;;;;;;;24.99;37.92;99244.09;1836996;78;20213;-46
2023/05/04 11:31:55;;;;;;;;;;;;;;;25.00;37.93;99246.27;1833578;78;20123;-45
2023/05/04 11:34:43;;;;;;;;;;;;;;;25.02;37.90;99235.88;1843983;78;20245;-44
2023/05/04 11:37:32;;;;;;;;;;;;;;;25.01;37.90;99241.07;1864693;77;20168;-49
2023/05/04 11:40:21;;;;;;;;;;;;;;;25.02;37.92;99233.13;1868002;76;20123;-46
2023/05/04 11:43:11;;;;;;;;;;;;;;;25.02;37.87;99222.94;1837826;78;20127;-45
2023/05/04 11:45:59;;;;;;;;;;;;;;;25.03;37.88;99227.36;1840011;78;20209;-46
2023/05/04 11:48:47;;;;;;;;;;;;;;;25.04;37.82;99213.08;1858429;76;20116;-46
2023/05/04 11:51:35;;;;;;;;;;;;;;;25.04;37.85;99208.95;1846170;77;20119;-46
2023/05/04 11:54:22;;;;;;;;;;;;;;;25.05;37.81;99205.11;1852144;76;20151;-44
2023/05/04 11:57:11;;;;;;;;;;;;;;;25.05;37.80;99210.60;1849721;77;20167;-48
2023/05/04 11:59:58;;;;;;;;;;;;;;;25.03;37.79;99205.91;1826061;77;20256;-50
2023/05/04 12:02:46;;;;;;;;;;;;;;;25.04;37.79;99196.02;1864243;76;20187;-47
2023/05/04 12:05:34;;;;;;;;;;;;;;;25.04;37.78;99196.02;1873173;76;20196;-47
2023/05/04 12:08:33;;;;;;;;;;;;;;;25.05;37.78;99191.36;1860108;76;20144;-50
2023/05/04 12:11:24;;;;;;;;;;;;;;;25.06;37.72;99190.29;1826418;78;20131;-50
2023/05/04 12:14:16;;;;;;;;;;;;;;;25.04;37.71;99180.91;1864944;76;20119;-46
2023/05/04 12:17:03;;;;;;;;;;;;;;;25.06;37.71;99177.92;1872900;76;20231;-48
2023/05/04 12:19:55;;;;;;;;;;;;;;;25.07;37.71;99177.66;1883380;76;20204;-47
2023/05/04 12:22:42;;;;;;;;;;;;;;;25.08;37.66;99172.45;1837375;77;20186;-49
2023/05/04 12:25:29;;;;;;;;;;;;;;;25.07;37.65;99165.82;1842008;77;20180;-49
2023/05/04 12:28:18;;;;;;;;;;;;;;;25.08;37.63;99169.70;1868174;76;20149;-46
2023/05/04 12:31:06;;;;;;;;;;;;;;;25.09;37.61;99165.02;1842084;77;20125;-44
2023/05/04 12:33:53;;;;;;;;;;;;;;;25.09;37.60;99156.77;1883393;76;20125;-45
2023/05/04 12:36:43;;;;;;;;;;;;;;;25.09;37.58;99159.52;1843255;78;20133;-49
2023/05/04 12:39:31;;;;;;;;;;;;;;;25.09;37.56;99156.77;1876493;76;20124;-48
2023/05/04 12:42:18;;;;;;;;;;;;;;;25.10;37.60;99158.44;1871749;76;20136;-49
2023/05/04 12:45:06;;;;;;;;;;;;;;;25.09;37.58;99154.86;1864505;76;20174;-43
2023/05/04 12:47:54;;;;;;;;;;;;;;;25.10;37.55;99153.78;1848796;77;20188;-47
2023/05/04 12:50:43;;;;;;;;;;;;;;;25.11;37.58;99154.63;1872979;76;20143;-47
2023/05/04 12:53:31;;;;;;;;;;;;;;;25.10;37.52;99145.53;1839845;77;20246;-49
2023/05/04 12:56:18;;;;;;;;;;;;;;;25.11;37.51;99147.17;1869109;77;20156;-47
2023/05/04 12:59:06;;;;;;;;;;;;;;;25.12;37.47;99137.02;1860825;77;20197;-46
2023/05/04 13:01:53;;;;;;;;;;;;;;;25.13;37.42;99146.41;1862263;77;20125;-46
2023/05/04 13:04:41;;;;;;;;;;;;;;;25.12;37.46;99146.10;1858632;77;20158;-45
2023/05/04 13:07:29;;;;;;;;;;;;;;;25.12;37.42;99143.36;1834974;76;20156;-46
2023/05/04 13:10:17;;;;;;;;;;;;;;;25.13;37.40;99142.28;1860033;77;20229;-45
2023/05/04 13:13:05;;;;;;;;;;;;;;;25.11;37.39;99136.19;1873374;76;20172;-48
2023/05/04 13:15:53;;;;;;;;;;;;;;;25.10;37.42;99130.42;1851907;77;20128;-47
2023/05/04 13:18:40;;;;;;;;;;;;;;;25.12;37.41;99135.11;1851754;77;20191;-46
2023/05/04 13:21:27;;;;;;;;;;;;;;;25.13;37.42;99133.20;1892033;76;20144;-45
2023/05/04 13:24:15;;;;;;;;;;;;;;;25.12;37.41;99124.66;1890016;76;20128;-46
2023/05/04 13:27:03;;;;;;;;;;;;;;;25.13;37.39;99113.42;1892188;76;20164;-46
2023/05/04 13:29:50;;;;;;;;;;;;;;;25.12;37.36;99113.66;1886622;76;20171;-48
2023/05/04 13:32:38;;;;;;;;;;;;;;;25.14;37.29;99111.47;1885030;76;20158;-46
2023/05/04 13:35:26;;;;;;;;;;;;;;;25.14;37.26;99097.73;1879924;76;20154;-46
2023/05/04 13:38:13;;;;;;;;;;;;;;;25.14;37.25;99104.06;1853623;76;20154;-45
2023/05/04 13:41:01;;;;;;;;;;;;;;;25.15;37.25;99098.03;1848234;77;20169;-46
2023/05/04 13:43:48;;;;;;;;;;;;;;;25.14;37.23;99099.11;1847576;77;20117;-44
2023/05/04 13:46:36;;;;;;;;;;;;;;;25.15;37.22;99095.28;1880967;76;20131;-45
2023/05/04 13:49:24;;;;;;;;;;;;;;;25.15;37.20;99089.78;1859654;77;20125;-46
2023/05/04 13:52:12;;;;;;;;;;;;;;;25.16;37.10;99095.55;1861053;77;20177;-45
2023/05/04 13:54:59;;;;;;;;;;;;;;;25.14;37.07;99090.32;1875675;76;20222;-46
2023/05/04 13:57:47;;;;;;;;;;;;;;;25.14;37.06;99083.45;1871744;76;20148;-44
2023/05/04 14:00:35;;;;;;;;;;;;;;;25.15;37.07;99082.91;1868545;76;20195;-45
2023/05/04 14:03:22;;;;;;;;;;;;;;;25.17;37.00;99080.19;1879818;76;20125;-46
2023/05/04 14:06:10;;;;;;;;;;;;;;;25.17;37.00;99080.73;1860995;77;20190;-47
2023/05/04 14:08:58;;;;;;;;;;;;;;;25.16;37.02;99075.77;1857458;77;20126;-47
2023/05/04 14:11:46;;;;;;;;;;;;;;;25.18;36.96;99071.41;1859865;77;20192;-45
2023/05/04 14:14:33;;;;;;;;;;;;;;;25.17;36.93;99066.98;1860884;77;20178;-47
2023/05/04 14:17:21;;;;;;;;;;;;;;;25.16;36.88;99063.40;1841138;77;20170;-44
2023/05/04 14:20:09;;;;;;;;;;;;;;;25.16;36.86;99062.56;1866876;76;20183;-47
2023/05/04 14:22:56;;;;;;;;;;;;;;;25.15;36.94;99059.55;1896605;76;20124;-46
2023/05/04 14:25:45;;;;;;;;;;;;;;;25.16;36.87;99054.31;1875505;76;20170;-48
2023/05/04 14:28:32;;;;;;;;;;;;;;;25.16;36.83;99050.20;1883148;76;20191;-45
2023/05/04 14:31:20;;;;;;;;;;;;;;;25.18;36.78;99050.78;1881169;76;20148;-45
2023/05/04 14:34:07;;;;;;;;;;;;;;;25.19;36.76;99049.14;1861150;77;20151;-47
2023/05/04 14:36:55;;;;;;;;;;;;;;;25.16;36.78;99044.70;1841712;77;20174;-47